sensor_id;sensor_type;location;lat;lon;timestamp;P1;durP1;ratioP1;P2;durP2;ratioP2
75499;SDS011;64076;51.466;7.260;2023-04-24T00:01:54;3.07;;;1.90;;
75499;SDS011;64076;51.466;7.260;2023-04-24T00:04:21;2.83;;;1.83;;
75499;SDS011;64076;51.466;7.260;2023-04-24T00:06:46;2.65;;;1.60;;
75499;SDS011;64076;51.466;7.260;2023-04-24T00:09:18;2.20;;;1.80;;
75499;SDS011;64076;51.466;7.260;2023-04-24T00:11:44;2.67;;;1.75;;
75499;SDS011;64076;51.466;7.260;2023-04-24T00:14:10;2.70;;;1.60;;
75499;SDS011;64076;51.466;7.260;2023-04-24T00:16:35;2.10;;;1.55;;
75499;SDS011;64076;51.466;7.260;2023-04-24T00:19:01;2.73;;;1.57;;
75499;SDS011;64076;51.466;7.260;2023-04-24T00:21:26;3.00;;;1.70;;
75499;SDS011;64076;51.466;7.260;2023-04-24T00:23:52;3.53;;;1.70;;
75499;SDS011;64076;51.466;7.260;2023-04-24T00:26:18;2.40;;;1.60;;
75499;SDS011;64076;51.466;7.260;2023-04-24T00:28:44;2.50;;;1.77;;
75499;SDS011;64076;51.466;7.260;2023-04-24T00:31:09;2.50;;;1.70;;
75499;SDS011;64076;51.466;7.260;2023-04-24T00:33:35;1.80;;;1.50;;
75499;SDS011;64076;51.466;7.260;2023-04-24T00:36:01;2.30;;;1.45;;
75499;SDS011;64076;51.466;7.260;2023-04-24T00:38:26;2.53;;;1.50;;
75499;SDS011;64076;51.466;7.260;2023-04-24T00:40:52;3.20;;;1.77;;
75499;SDS011;64076;51.466;7.260;2023-04-24T00:43:19;2.13;;;1.58;;
75499;SDS011;64076;51.466;7.260;2023-04-24T00:45:44;3.78;;;1.55;;
75499;SDS011;64076;51.466;7.260;2023-04-24T00:48:11;2.55;;;1.70;;
75499;SDS011;64076;51.466;7.260;2023-04-24T00:50:37;2.40;;;1.63;;
75499;SDS011;64076;51.466;7.260;2023-04-24T00:53:03;2.55;;;1.50;;
75499;SDS011;64076;51.466;7.260;2023-04-24T00:55:29;2.30;;;1.70;;
75499;SDS011;64076;51.466;7.260;2023-04-24T00:57:55;2.00;;;1.20;;
75499;SDS011;64076;51.466;7.260;2023-04-24T01:00:20;2.17;;;1.55;;
75499;SDS011;64076;51.466;7.260;2023-04-24T01:02:47;2.22;;;1.60;;
75499;SDS011;64076;51.466;7.260;2023-04-24T01:05:13;2.80;;;1.40;;
75499;SDS011;64076;51.466;7.260;2023-04-24T01:07:40;1.92;;;1.48;;
75499;SDS011;64076;51.466;7.260;2023-04-24T01:10:09;2.80;;;1.50;;
75499;SDS011;64076;51.466;7.260;2023-04-24T01:12:35;1.88;;;1.30;;
75499;SDS011;64076;51.466;7.260;2023-04-24T01:15:01;2.90;;;1.42;;
75499;SDS011;64076;51.466;7.260;2023-04-24T01:17:26;2.50;;;1.60;;
75499;SDS011;64076;51.466;7.260;2023-04-24T01:19:52;2.27;;;1.40;;
75499;SDS011;64076;51.466;7.260;2023-04-24T01:22:22;2.20;;;1.60;;
75499;SDS011;64076;51.466;7.260;2023-04-24T01:24:47;2.47;;;1.58;;
75499;SDS011;64076;51.466;7.260;2023-04-24T01:27:13;2.30;;;1.53;;
75499;SDS011;64076;51.466;7.260;2023-04-24T01:29:40;2.30;;;1.50;;
75499;SDS011;64076;51.466;7.260;2023-04-24T01:32:06;2.97;;;1.63;;
75499;SDS011;64076;51.466;7.260;2023-04-24T01:34:31;2.20;;;1.40;;
75499;SDS011;64076;51.466;7.260;2023-04-24T01:36:58;2.75;;;1.55;;
75499;SDS011;64076;51.466;7.260;2023-04-24T01:39:23;1.70;;;1.40;;
75499;SDS011;64076;51.466;7.260;2023-04-24T01:41:50;2.70;;;1.33;;
75499;SDS011;64076;51.466;7.260;2023-04-24T01:44:17;2.00;;;1.43;;
75499;SDS011;64076;51.466;7.260;2023-04-24T01:46:43;2.03;;;1.30;;
75499;SDS011;64076;51.466;7.260;2023-04-24T01:49:09;2.33;;;1.50;;
75499;SDS011;64076;51.466;7.260;2023-04-24T01:51:35;2.10;;;1.58;;
75499;SDS011;64076;51.466;7.260;2023-04-24T01:54:01;2.10;;;1.47;;
75499;SDS011;64076;51.466;7.260;2023-04-24T01:56:27;2.13;;;1.60;;
75499;SDS011;64076;51.466;7.260;2023-04-24T01:58:54;1.77;;;1.25;;
75499;SDS011;64076;51.466;7.260;2023-04-24T02:01:21;2.42;;;1.52;;
75499;SDS011;64076;51.466;7.260;2023-04-24T02:03:48;2.17;;;1.48;;
75499;SDS011;64076;51.466;7.260;2023-04-24T02:06:13;2.43;;;1.60;;
75499;SDS011;64076;51.466;7.260;2023-04-24T02:08:39;2.00;;;1.37;;
75499;SDS011;64076;51.466;7.260;2023-04-24T02:11:04;2.10;;;1.42;;
75499;SDS011;64076;51.466;7.260;2023-04-24T02:13:30;2.43;;;1.40;;
75499;SDS011;64076;51.466;7.260;2023-04-24T02:15:57;2.20;;;1.58;;
75499;SDS011;64076;51.466;7.260;2023-04-24T02:18:23;2.35;;;1.40;;
75499;SDS011;64076;51.466;7.260;2023-04-24T02:20:49;2.40;;;1.50;;
75499;SDS011;64076;51.466;7.260;2023-04-24T02:23:14;2.42;;;1.65;;
75499;SDS011;64076;51.466;7.260;2023-04-24T02:25:40;1.93;;;1.30;;
75499;SDS011;64076;51.466;7.260;2023-04-24T02:28:06;2.00;;;1.60;;
75499;SDS011;64076;51.466;7.260;2023-04-24T02:30:31;2.83;;;1.58;;
75499;SDS011;64076;51.466;7.260;2023-04-24T02:32:57;2.00;;;1.40;;
75499;SDS011;64076;51.466;7.260;2023-04-24T02:35:22;2.28;;;1.50;;
75499;SDS011;64076;51.466;7.260;2023-04-24T02:37:48;1.93;;;1.50;;
75499;SDS011;64076;51.466;7.260;2023-04-24T02:40:13;2.67;;;1.53;;
75499;SDS011;64076;51.466;7.260;2023-04-24T02:42:39;2.15;;;1.50;;
75499;SDS011;64076;51.466;7.260;2023-04-24T02:45:05;2.13;;;1.57;;
75499;SDS011;64076;51.466;7.260;2023-04-24T02:47:31;2.45;;;1.65;;
75499;SDS011;64076;51.466;7.260;2023-04-24T02:49:56;2.13;;;1.50;;
75499;SDS011;64076;51.466;7.260;2023-04-24T02:52:22;2.03;;;1.45;;
75499;SDS011;64076;51.466;7.260;2023-04-24T02:54:47;2.53;;;1.70;;
75499;SDS011;64076;51.466;7.260;2023-04-24T02:57:13;2.47;;;1.67;;
75499;SDS011;64076;51.466;7.260;2023-04-24T02:59:38;2.80;;;1.60;;
75499;SDS011;64076;51.466;7.260;2023-04-24T03:02:04;1.80;;;1.33;;
75499;SDS011;64076;51.466;7.260;2023-04-24T03:04:30;2.65;;;1.70;;
75499;SDS011;64076;51.466;7.260;2023-04-24T03:06:56;2.10;;;1.70;;
75499;SDS011;64076;51.466;7.260;2023-04-24T03:09:22;3.03;;;1.80;;
75499;SDS011;64076;51.466;7.260;2023-04-24T03:11:48;2.25;;;1.65;;
75499;SDS011;64076;51.466;7.260;2023-04-24T03:14:14;2.80;;;1.97;;
75499;SDS011;64076;51.466;7.260;2023-04-24T03:16:40;2.72;;;1.70;;
75499;SDS011;64076;51.466;7.260;2023-04-24T03:19:05;2.60;;;1.60;;
75499;SDS011;64076;51.466;7.260;2023-04-24T03:21:31;2.30;;;1.60;;
75499;SDS011;64076;51.466;7.260;2023-04-24T03:23:57;2.53;;;1.60;;
75499;SDS011;64076;51.466;7.260;2023-04-24T03:26:22;2.70;;;2.00;;
75499;SDS011;64076;51.466;7.260;2023-04-24T03:28:48;2.20;;;1.63;;
75499;SDS011;64076;51.466;7.260;2023-04-24T03:31:13;2.47;;;1.70;;
75499;SDS011;64076;51.466;7.260;2023-04-24T03:33:40;2.35;;;1.70;;
75499;SDS011;64076;51.466;7.260;2023-04-24T03:36:06;2.53;;;1.92;;
75499;SDS011;64076;51.466;7.260;2023-04-24T03:38:31;2.93;;;2.13;;
75499;SDS011;64076;51.466;7.260;2023-04-24T03:40:57;2.83;;;2.40;;
75499;SDS011;64076;51.466;7.260;2023-04-24T03:43:22;2.80;;;2.10;;
75499;SDS011;64076;51.466;7.260;2023-04-24T03:45:48;2.63;;;1.83;;
75499;SDS011;64076;51.466;7.260;2023-04-24T03:48:14;2.33;;;1.80;;
75499;SDS011;64076;51.466;7.260;2023-04-24T03:50:39;3.10;;;2.07;;
75499;SDS011;64076;51.466;7.260;2023-04-24T03:53:05;2.55;;;1.90;;
75499;SDS011;64076;51.466;7.260;2023-04-24T03:55:31;3.20;;;2.10;;
75499;SDS011;64076;51.466;7.260;2023-04-24T03:57:57;3.15;;;2.10;;
75499;SDS011;64076;51.466;7.260;2023-04-24T04:00:22;3.10;;;2.20;;
75499;SDS011;64076;51.466;7.260;2023-04-24T04:02:48;1.97;;;1.73;;
75499;SDS011;64076;51.466;7.260;2023-04-24T04:05:14;3.23;;;2.13;;
75499;SDS011;64076;51.466;7.260;2023-04-24T04:07:39;4.23;;;2.40;;
75499;SDS011;64076;51.466;7.260;2023-04-24T04:10:05;2.70;;;2.10;;
75499;SDS011;64076;51.466;7.260;2023-04-24T04:12:32;3.07;;;2.53;;
75499;SDS011;64076;51.466;7.260;2023-04-24T04:14:57;3.03;;;2.10;;
75499;SDS011;64076;51.466;7.260;2023-04-24T04:17:23;3.93;;;2.30;;
75499;SDS011;64076;51.466;7.260;2023-04-24T04:19:48;3.50;;;2.50;;
75499;SDS011;64076;51.466;7.260;2023-04-24T04:22:15;3.43;;;2.40;;
75499;SDS011;64076;51.466;7.260;2023-04-24T04:24:40;3.08;;;2.35;;
75499;SDS011;64076;51.466;7.260;2023-04-24T04:27:06;3.17;;;2.40;;
75499;SDS011;64076;51.466;7.260;2023-04-24T04:29:33;4.38;;;2.58;;
75499;SDS011;64076;51.466;7.260;2023-04-24T04:31:59;4.07;;;2.80;;
75499;SDS011;64076;51.466;7.260;2023-04-24T04:34:25;3.63;;;2.70;;
75499;SDS011;64076;51.466;7.260;2023-04-24T04:36:50;3.30;;;2.90;;
75499;SDS011;64076;51.466;7.260;2023-04-24T04:39:16;3.25;;;2.70;;
75499;SDS011;64076;51.466;7.260;2023-04-24T04:41:43;3.38;;;2.80;;
75499;SDS011;64076;51.466;7.260;2023-04-24T04:44:09;3.77;;;2.90;;
75499;SDS011;64076;51.466;7.260;2023-04-24T04:46:34;3.42;;;3.13;;
75499;SDS011;64076;51.466;7.260;2023-04-24T04:49:02;5.07;;;3.10;;
75499;SDS011;64076;51.466;7.260;2023-04-24T04:51:27;4.10;;;3.28;;
75499;SDS011;64076;51.466;7.260;2023-04-24T04:53:53;3.15;;;2.85;;
75499;SDS011;64076;51.466;7.260;2023-04-24T04:56:19;3.80;;;3.40;;
75499;SDS011;64076;51.466;7.260;2023-04-24T04:58:44;3.50;;;3.20;;
75499;SDS011;64076;51.466;7.260;2023-04-24T05:01:10;4.38;;;3.10;;
75499;SDS011;64076;51.466;7.260;2023-04-24T05:03:35;5.07;;;3.63;;
75499;SDS011;64076;51.466;7.260;2023-04-24T05:06:01;5.23;;;3.63;;
75499;SDS011;64076;51.466;7.260;2023-04-24T05:08:27;4.15;;;3.30;;
75499;SDS011;64076;51.466;7.260;2023-04-24T05:10:53;4.07;;;3.20;;
75499;SDS011;64076;51.466;7.260;2023-04-24T05:13:19;3.93;;;3.00;;
75499;SDS011;64076;51.466;7.260;2023-04-24T05:15:45;3.78;;;3.00;;
75499;SDS011;64076;51.466;7.260;2023-04-24T05:18:10;4.07;;;2.97;;
75499;SDS011;64076;51.466;7.260;2023-04-24T05:20:36;3.45;;;2.83;;
75499;SDS011;64076;51.466;7.260;2023-04-24T05:23:01;3.20;;;2.53;;
75499;SDS011;64076;51.466;7.260;2023-04-24T05:25:27;2.90;;;2.47;;
75499;SDS011;64076;51.466;7.260;2023-04-24T05:27:52;2.83;;;2.53;;
75499;SDS011;64076;51.466;7.260;2023-04-24T05:30:18;2.97;;;2.60;;
75499;SDS011;64076;51.466;7.260;2023-04-24T05:32:44;2.80;;;2.20;;
75499;SDS011;64076;51.466;7.260;2023-04-24T05:35:10;2.60;;;2.10;;
75499;SDS011;64076;51.466;7.260;2023-04-24T05:37:35;2.80;;;2.40;;
75499;SDS011;64076;51.466;7.260;2023-04-24T05:40:01;2.72;;;2.30;;
75499;SDS011;64076;51.466;7.260;2023-04-24T05:42:29;2.50;;;2.28;;
75499;SDS011;64076;51.466;7.260;2023-04-24T05:44:54;2.57;;;1.83;;
75499;SDS011;64076;51.466;7.260;2023-04-24T05:47:20;2.67;;;1.83;;
75499;SDS011;64076;51.466;7.260;2023-04-24T05:49:47;1.98;;;1.70;;
75499;SDS011;64076;51.466;7.260;2023-04-24T05:52:12;2.75;;;2.30;;
75499;SDS011;64076;51.466;7.260;2023-04-24T05:54:38;2.53;;;1.87;;
75499;SDS011;64076;51.466;7.260;2023-04-24T05:57:04;2.33;;;1.80;;
75499;SDS011;64076;51.466;7.260;2023-04-24T05:59:32;2.10;;;1.60;;
75499;SDS011;64076;51.466;7.260;2023-04-24T06:01:59;2.38;;;1.90;;
75499;SDS011;64076;51.466;7.260;2023-04-24T06:04:24;2.10;;;1.60;;
75499;SDS011;64076;51.466;7.260;2023-04-24T06:06:50;2.53;;;1.60;;
75499;SDS011;64076;51.466;7.260;2023-04-24T06:09:20;2.00;;;1.65;;
75499;SDS011;64076;51.466;7.260;2023-04-24T06:11:49;2.17;;;1.77;;
75499;SDS011;64076;51.466;7.260;2023-04-24T06:14:17;2.10;;;1.60;;
75499;SDS011;64076;51.466;7.260;2023-04-24T06:16:43;2.00;;;1.47;;
75499;SDS011;64076;51.466;7.260;2023-04-24T06:19:08;2.15;;;1.70;;
75499;SDS011;64076;51.466;7.260;2023-04-24T06:21:34;2.43;;;1.50;;
75499;SDS011;64076;51.466;7.260;2023-04-24T06:24:00;1.93;;;1.50;;
75499;SDS011;64076;51.466;7.260;2023-04-24T06:26:25;1.90;;;1.40;;
75499;SDS011;64076;51.466;7.260;2023-04-24T06:28:51;3.47;;;1.67;;
75499;SDS011;64076;51.466;7.260;2023-04-24T06:31:18;2.28;;;1.70;;
75499;SDS011;64076;51.466;7.260;2023-04-24T06:33:45;2.28;;;1.73;;
75499;SDS011;64076;51.466;7.260;2023-04-24T06:36:11;1.97;;;1.40;;
75499;SDS011;64076;51.466;7.260;2023-04-24T06:38:37;2.00;;;1.60;;
75499;SDS011;64076;51.466;7.260;2023-04-24T06:41:03;2.10;;;1.70;;
75499;SDS011;64076;51.466;7.260;2023-04-24T06:43:30;2.05;;;1.50;;
75499;SDS011;64076;51.466;7.260;2023-04-24T06:45:56;1.90;;;1.33;;
75499;SDS011;64076;51.466;7.260;2023-04-24T06:48:23;2.00;;;1.50;;
75499;SDS011;64076;51.466;7.260;2023-04-24T06:50:50;2.50;;;1.35;;
75499;SDS011;64076;51.466;7.260;2023-04-24T06:53:15;1.97;;;1.40;;
75499;SDS011;64076;51.466;7.260;2023-04-24T06:55:41;3.13;;;1.45;;
75499;SDS011;64076;51.466;7.260;2023-04-24T06:58:08;1.80;;;1.42;;
75499;SDS011;64076;51.466;7.260;2023-04-24T07:00:33;2.27;;;1.40;;
75499;SDS011;64076;51.466;7.260;2023-04-24T07:02:59;1.70;;;1.30;;
75499;SDS011;64076;51.466;7.260;2023-04-24T07:05:25;2.03;;;1.77;;
75499;SDS011;64076;51.466;7.260;2023-04-24T07:07:50;2.10;;;1.60;;
75499;SDS011;64076;51.466;7.260;2023-04-24T07:10:16;3.08;;;1.50;;
75499;SDS011;64076;51.466;7.260;2023-04-24T07:12:42;2.45;;;1.60;;
75499;SDS011;64076;51.466;7.260;2023-04-24T07:15:08;3.97;;;1.70;;
75499;SDS011;64076;51.466;7.260;2023-04-24T07:17:35;3.38;;;1.60;;
75499;SDS011;64076;51.466;7.260;2023-04-24T07:20:03;2.72;;;1.50;;
75499;SDS011;64076;51.466;7.260;2023-04-24T07:22:29;2.33;;;1.85;;
75499;SDS011;64076;51.466;7.260;2023-04-24T07:24:55;2.00;;;1.70;;
75499;SDS011;64076;51.466;7.260;2023-04-24T07:27:21;3.50;;;1.97;;
75499;SDS011;64076;51.466;7.260;2023-04-24T07:29:47;4.60;;;1.88;;
75499;SDS011;64076;51.466;7.260;2023-04-24T07:32:13;2.10;;;1.83;;
75499;SDS011;64076;51.466;7.260;2023-04-24T07:34:39;2.20;;;1.80;;
75499;SDS011;64076;51.466;7.260;2023-04-24T07:37:05;1.98;;;1.77;;
75499;SDS011;64076;51.466;7.260;2023-04-24T07:39:31;3.28;;;2.13;;
75499;SDS011;64076;51.466;7.260;2023-04-24T07:41:57;2.10;;;1.52;;
75499;SDS011;64076;51.466;7.260;2023-04-24T07:44:24;2.88;;;1.70;;
75499;SDS011;64076;51.466;7.260;2023-04-24T07:46:50;3.07;;;1.83;;
75499;SDS011;64076;51.466;7.260;2023-04-24T07:49:16;2.63;;;1.80;;
75499;SDS011;64076;51.466;7.260;2023-04-24T07:51:42;2.05;;;1.70;;
75499;SDS011;64076;51.466;7.260;2023-04-24T07:54:08;2.20;;;1.65;;
75499;SDS011;64076;51.466;7.260;2023-04-24T07:56:34;2.10;;;1.63;;
75499;SDS011;64076;51.466;7.260;2023-04-24T07:59:03;3.35;;;2.00;;
75499;SDS011;64076;51.466;7.260;2023-04-24T08:01:29;2.00;;;1.50;;
75499;SDS011;64076;51.466;7.260;2023-04-24T08:03:55;2.08;;;1.40;;
75499;SDS011;64076;51.466;7.260;2023-04-24T08:06:21;2.00;;;1.40;;
75499;SDS011;64076;51.466;7.260;2023-04-24T08:08:47;1.77;;;1.23;;
75499;SDS011;64076;51.466;7.260;2023-04-24T08:11:13;1.88;;;1.40;;
75499;SDS011;64076;51.466;7.260;2023-04-24T08:13:39;6.82;;;1.55;;
75499;SDS011;64076;51.466;7.260;2023-04-24T08:16:05;2.20;;;1.20;;
75499;SDS011;64076;51.466;7.260;2023-04-24T08:18:31;2.10;;;1.20;;
75499;SDS011;64076;51.466;7.260;2023-04-24T08:20:58;1.65;;;1.02;;
75499;SDS011;64076;51.466;7.260;2023-04-24T08:23:26;1.60;;;1.00;;
75499;SDS011;64076;51.466;7.260;2023-04-24T08:25:52;1.75;;;1.20;;
75499;SDS011;64076;51.466;7.260;2023-04-24T08:28:18;1.43;;;0.83;;
75499;SDS011;64076;51.466;7.260;2023-04-24T08:30:45;2.00;;;0.80;;
75499;SDS011;64076;51.466;7.260;2023-04-24T08:33:12;1.58;;;0.70;;
75499;SDS011;64076;51.466;7.260;2023-04-24T08:35:38;1.80;;;0.63;;
75499;SDS011;64076;51.466;7.260;2023-04-24T08:38:04;2.22;;;0.70;;
75499;SDS011;64076;51.466;7.260;2023-04-24T08:40:30;1.90;;;0.77;;
75499;SDS011;64076;51.466;7.260;2023-04-24T08:42:59;1.33;;;0.70;;
75499;SDS011;64076;51.466;7.260;2023-04-24T08:45:25;1.20;;;0.65;;
75499;SDS011;64076;51.466;7.260;2023-04-24T08:47:52;1.20;;;0.63;;
75499;SDS011;64076;51.466;7.260;2023-04-24T08:50:19;2.25;;;0.68;;
75499;SDS011;64076;51.466;7.260;2023-04-24T08:52:45;1.40;;;0.73;;
75499;SDS011;64076;51.466;7.260;2023-04-24T08:55:15;1.20;;;0.60;;
75499;SDS011;64076;51.466;7.260;2023-04-24T08:57:43;1.92;;;0.60;;
75499;SDS011;64076;51.466;7.260;2023-04-24T09:00:10;1.67;;;0.60;;
75499;SDS011;64076;51.466;7.260;2023-04-24T09:02:36;1.40;;;0.60;;
75499;SDS011;64076;51.466;7.260;2023-04-24T09:05:02;1.20;;;0.55;;
75499;SDS011;64076;51.466;7.260;2023-04-24T09:07:28;1.90;;;0.60;;
75499;SDS011;64076;51.466;7.260;2023-04-24T09:09:55;1.00;;;0.45;;
75499;SDS011;64076;51.466;7.260;2023-04-24T09:12:22;1.20;;;0.70;;
75499;SDS011;64076;51.466;7.260;2023-04-24T09:14:48;1.30;;;0.50;;
75499;SDS011;64076;51.466;7.260;2023-04-24T09:17:13;1.40;;;0.60;;
75499;SDS011;64076;51.466;7.260;2023-04-24T09:19:40;2.05;;;0.95;;
75499;SDS011;64076;51.466;7.260;2023-04-24T09:22:06;1.42;;;0.75;;
75499;SDS011;64076;51.466;7.260;2023-04-24T09:24:33;2.00;;;0.95;;
75499;SDS011;64076;51.466;7.260;2023-04-24T09:26:59;2.67;;;1.00;;
75499;SDS011;64076;51.466;7.260;2023-04-24T09:29:26;1.75;;;0.80;;
75499;SDS011;64076;51.466;7.260;2023-04-24T09:31:53;2.10;;;0.77;;
75499;SDS011;64076;51.466;7.260;2023-04-24T09:34:22;2.65;;;1.00;;
75499;SDS011;64076;51.466;7.260;2023-04-24T09:36:50;1.60;;;0.80;;
75499;SDS011;64076;51.466;7.260;2023-04-24T09:39:17;2.50;;;1.17;;
75499;SDS011;64076;51.466;7.260;2023-04-24T09:44:18;1.70;;;0.80;;
75499;SDS011;64076;51.466;7.260;2023-04-24T09:46:50;2.05;;;1.05;;
75499;SDS011;64076;51.466;7.260;2023-04-24T09:49:21;2.58;;;1.00;;
75499;SDS011;64076;51.466;7.260;2023-04-24T09:51:47;2.90;;;0.90;;
75499;SDS011;64076;51.466;7.260;2023-04-24T09:54:14;1.55;;;0.70;;
75499;SDS011;64076;51.466;7.260;2023-04-24T09:56:48;1.42;;;0.80;;
75499;SDS011;64076;51.466;7.260;2023-04-24T09:59:14;1.50;;;0.70;;
75499;SDS011;64076;51.466;7.260;2023-04-24T10:01:41;2.03;;;0.88;;
75499;SDS011;64076;51.466;7.260;2023-04-24T10:04:19;2.03;;;0.90;;
75499;SDS011;64076;51.466;7.260;2023-04-24T10:06:46;2.35;;;0.93;;
75499;SDS011;64076;51.466;7.260;2023-04-24T10:09:13;2.72;;;0.98;;
75499;SDS011;64076;51.466;7.260;2023-04-24T10:11:41;1.60;;;0.90;;
75499;SDS011;64076;51.466;7.260;2023-04-24T10:14:09;1.58;;;0.90;;
75499;SDS011;64076;51.466;7.260;2023-04-24T10:16:35;1.67;;;0.93;;
75499;SDS011;64076;51.466;7.260;2023-04-24T10:19:02;1.75;;;0.98;;
75499;SDS011;64076;51.466;7.260;2023-04-24T10:21:28;2.67;;;1.05;;
75499;SDS011;64076;51.466;7.260;2023-04-24T10:23:55;1.70;;;1.10;;
75499;SDS011;64076;51.466;7.260;2023-04-24T10:26:21;3.03;;;1.20;;
75499;SDS011;64076;51.466;7.260;2023-04-24T10:28:47;2.40;;;1.07;;
75499;SDS011;64076;51.466;7.260;2023-04-24T10:31:13;23.52;;;2.53;;
75499;SDS011;64076;51.466;7.260;2023-04-24T10:33:43;43.97;;;5.30;;
75499;SDS011;64076;51.466;7.260;2023-04-24T10:36:09;56.60;;;5.88;;
75499;SDS011;64076;51.466;7.260;2023-04-24T10:38:36;61.65;;;6.57;;
75499;SDS011;64076;51.466;7.260;2023-04-24T10:41:12;32.83;;;5.03;;
75499;SDS011;64076;51.466;7.260;2023-04-24T10:43:44;25.67;;;4.82;;
75499;SDS011;64076;51.466;7.260;2023-04-24T10:46:10;21.20;;;3.72;;
75499;SDS011;64076;51.466;7.260;2023-04-24T10:48:42;16.20;;;3.70;;
75499;SDS011;64076;51.466;7.260;2023-04-24T10:51:12;16.33;;;3.33;;
75499;SDS011;64076;51.466;7.260;2023-04-24T10:53:39;15.17;;;2.90;;
75499;SDS011;64076;51.466;7.260;2023-04-24T10:56:05;8.50;;;2.63;;
75499;SDS011;64076;51.466;7.260;2023-04-24T10:58:36;7.20;;;2.60;;
75499;SDS011;64076;51.466;7.260;2023-04-24T11:01:03;6.53;;;2.47;;
75499;SDS011;64076;51.466;7.260;2023-04-24T11:03:29;7.15;;;2.20;;
75499;SDS011;64076;51.466;7.260;2023-04-24T11:05:56;10.03;;;2.20;;
75499;SDS011;64076;51.466;7.260;2023-04-24T11:08:30;9.82;;;2.17;;
75499;SDS011;64076;51.466;7.260;2023-04-24T11:11:00;8.00;;;1.75;;
75499;SDS011;64076;51.466;7.260;2023-04-24T11:13:27;4.82;;;1.80;;
75499;SDS011;64076;51.466;7.260;2023-04-24T11:16:12;5.50;;;1.50;;
75499;SDS011;64076;51.466;7.260;2023-04-24T11:18:39;5.97;;;1.70;;
75499;SDS011;64076;51.466;7.260;2023-04-24T11:21:12;4.43;;;1.50;;
75499;SDS011;64076;51.466;7.260;2023-04-24T11:23:38;5.00;;;1.50;;
75499;SDS011;64076;51.466;7.260;2023-04-24T11:26:17;3.45;;;1.50;;
75499;SDS011;64076;51.466;7.260;2023-04-24T11:28:44;2.38;;;1.45;;
75499;SDS011;64076;51.466;7.260;2023-04-24T11:33:56;2.70;;;1.15;;
75499;SDS011;64076;51.466;7.260;2023-04-24T11:36:22;4.47;;;1.40;;
75499;SDS011;64076;51.466;7.260;2023-04-24T11:38:48;2.53;;;1.25;;
75499;SDS011;64076;51.466;7.260;2023-04-24T11:41:14;3.38;;;1.27;;
75499;SDS011;64076;51.466;7.260;2023-04-24T11:43:40;3.20;;;1.30;;
75499;SDS011;64076;51.466;7.260;2023-04-24T11:46:07;2.92;;;1.20;;
75499;SDS011;64076;51.466;7.260;2023-04-24T11:48:36;2.20;;;1.25;;
75499;SDS011;64076;51.466;7.260;2023-04-24T11:51:05;2.10;;;1.20;;
75499;SDS011;64076;51.466;7.260;2023-04-24T11:53:31;2.33;;;1.23;;
75499;SDS011;64076;51.466;7.260;2023-04-24T11:56:02;2.67;;;1.20;;
75499;SDS011;64076;51.466;7.260;2023-04-24T11:58:28;2.58;;;1.30;;
75499;SDS011;64076;51.466;7.260;2023-04-24T12:00:57;2.50;;;1.25;;
75499;SDS011;64076;51.466;7.260;2023-04-24T12:03:23;2.00;;;1.35;;
75499;SDS011;64076;51.466;7.260;2023-04-24T12:05:49;3.17;;;1.70;;
75499;SDS011;64076;51.466;7.260;2023-04-24T12:08:27;1.80;;;1.20;;
75499;SDS011;64076;51.466;7.260;2023-04-24T12:10:54;2.05;;;1.20;;
75499;SDS011;64076;51.466;7.260;2023-04-24T12:13:22;1.85;;;0.98;;
75499;SDS011;64076;51.466;7.260;2023-04-24T12:15:56;1.75;;;1.02;;
75499;SDS011;64076;51.466;7.260;2023-04-24T12:18:22;2.00;;;1.10;;
75499;SDS011;64076;51.466;7.260;2023-04-24T12:20:48;1.63;;;1.10;;
75499;SDS011;64076;51.466;7.260;2023-04-24T12:23:14;1.70;;;1.00;;
75499;SDS011;64076;51.466;7.260;2023-04-24T12:25:40;1.90;;;1.00;;
75499;SDS011;64076;51.466;7.260;2023-04-24T12:30:39;2.40;;;1.20;;
75499;SDS011;64076;51.466;7.260;2023-04-24T12:33:05;3.00;;;1.00;;
75499;SDS011;64076;51.466;7.260;2023-04-24T12:35:32;2.17;;;1.00;;
75499;SDS011;64076;51.466;7.260;2023-04-24T12:38:10;2.15;;;1.08;;
75499;SDS011;64076;51.466;7.260;2023-04-24T12:40:37;2.03;;;1.15;;
75499;SDS011;64076;51.466;7.260;2023-04-24T12:43:13;2.37;;;1.00;;
75499;SDS011;64076;51.466;7.260;2023-04-24T12:45:40;1.80;;;0.90;;
75499;SDS011;64076;51.466;7.260;2023-04-24T12:48:06;2.58;;;1.00;;
75499;SDS011;64076;51.466;7.260;2023-04-24T12:50:32;1.77;;;1.02;;
75499;SDS011;64076;51.466;7.260;2023-04-24T12:52:58;2.33;;;1.17;;
75499;SDS011;64076;51.466;7.260;2023-04-24T12:55:24;5.73;;;1.40;;
75499;SDS011;64076;51.466;7.260;2023-04-24T12:57:50;5.25;;;1.10;;
75499;SDS011;64076;51.466;7.260;2023-04-24T13:00:16;3.97;;;0.93;;
75499;SDS011;64076;51.466;7.260;2023-04-24T13:02:42;2.58;;;1.10;;
75499;SDS011;64076;51.466;7.260;2023-04-24T13:05:08;9.53;;;1.37;;
75499;SDS011;64076;51.466;7.260;2023-04-24T13:07:36;6.03;;;1.50;;
75499;SDS011;64076;51.466;7.260;2023-04-24T13:10:02;8.20;;;1.33;;
75499;SDS011;64076;51.466;7.260;2023-04-24T13:12:28;5.93;;;0.90;;
75499;SDS011;64076;51.466;7.260;2023-04-24T13:14:54;4.00;;;1.23;;
75499;SDS011;64076;51.466;7.260;2023-04-24T13:17:21;4.07;;;1.00;;
75499;SDS011;64076;51.466;7.260;2023-04-24T13:19:49;6.97;;;1.10;;
75499;SDS011;64076;51.466;7.260;2023-04-24T13:22:15;4.28;;;0.90;;
75499;SDS011;64076;51.466;7.260;2023-04-24T13:24:43;2.70;;;0.95;;
75499;SDS011;64076;51.466;7.260;2023-04-24T13:27:10;3.17;;;1.20;;
75499;SDS011;64076;51.466;7.260;2023-04-24T13:29:36;3.50;;;1.17;;
75499;SDS011;64076;51.466;7.260;2023-04-24T13:32:02;19.17;;;2.30;;
75499;SDS011;64076;51.466;7.260;2023-04-24T13:34:28;14.32;;;2.50;;
75499;SDS011;64076;51.466;7.260;2023-04-24T13:36:55;9.18;;;1.42;;
75499;SDS011;64076;51.466;7.260;2023-04-24T13:39:22;4.55;;;1.30;;
75499;SDS011;64076;51.466;7.260;2023-04-24T13:41:48;8.07;;;1.77;;
75499;SDS011;64076;51.466;7.260;2023-04-24T13:44:18;6.00;;;1.20;;
75499;SDS011;64076;51.466;7.260;2023-04-24T13:46:45;3.00;;;1.00;;
75499;SDS011;64076;51.466;7.260;2023-04-24T13:49:11;4.30;;;1.27;;
75499;SDS011;64076;51.466;7.260;2023-04-24T13:51:38;3.22;;;1.15;;
75499;SDS011;64076;51.466;7.260;2023-04-24T13:54:04;57.20;;;3.60;;
75499;SDS011;64076;51.466;7.260;2023-04-24T13:56:30;24.40;;;1.63;;
75499;SDS011;64076;51.466;7.260;2023-04-24T13:58:56;12.48;;;1.52;;
75499;SDS011;64076;51.466;7.260;2023-04-24T14:01:22;9.55;;;1.10;;
75499;SDS011;64076;51.466;7.260;2023-04-24T14:03:50;4.80;;;1.10;;
75499;SDS011;64076;51.466;7.260;2023-04-24T14:06:16;5.47;;;1.08;;
75499;SDS011;64076;51.466;7.260;2023-04-24T14:08:42;7.80;;;1.10;;
75499;SDS011;64076;51.466;7.260;2023-04-24T14:11:08;3.08;;;0.90;;
75499;SDS011;64076;51.466;7.260;2023-04-24T14:13:35;3.70;;;0.98;;
75499;SDS011;64076;51.466;7.260;2023-04-24T14:16:01;4.00;;;1.00;;
75499;SDS011;64076;51.466;7.260;2023-04-24T14:18:27;5.18;;;0.95;;
75499;SDS011;64076;51.466;7.260;2023-04-24T14:20:53;3.72;;;0.98;;
75499;SDS011;64076;51.466;7.260;2023-04-24T14:23:19;2.00;;;0.80;;
75499;SDS011;64076;51.466;7.260;2023-04-24T14:25:45;4.53;;;0.90;;
75499;SDS011;64076;51.466;7.260;2023-04-24T14:28:15;3.40;;;1.00;;
75499;SDS011;64076;51.466;7.260;2023-04-24T14:30:41;4.60;;;0.80;;
75499;SDS011;64076;51.466;7.260;2023-04-24T14:33:07;2.90;;;0.80;;
75499;SDS011;64076;51.466;7.260;2023-04-24T14:35:33;1.98;;;0.98;;
75499;SDS011;64076;51.466;7.260;2023-04-24T14:38:00;2.50;;;0.80;;
75499;SDS011;64076;51.466;7.260;2023-04-24T14:40:26;1.75;;;0.85;;
75499;SDS011;64076;51.466;7.260;2023-04-24T14:42:52;2.33;;;0.98;;
75499;SDS011;64076;51.466;7.260;2023-04-24T14:45:18;1.67;;;0.82;;
75499;SDS011;64076;51.466;7.260;2023-04-24T14:47:44;4.25;;;1.00;;
75499;SDS011;64076;51.466;7.260;2023-04-24T14:50:10;3.43;;;1.03;;
75499;SDS011;64076;51.466;7.260;2023-04-24T14:52:37;2.20;;;0.90;;